QTR67E KBZN-KBZN
Flight info
| Callsign | QTR67E |
|---|---|
| Flight time | 0h 22m |
| Altitude | 10000 |
| Route | THESE |
| Aircraft | A346/H-SDE2E3FGHIJ3J4J5M1RWXY/LB1D1 |
Departure
| Time | 2026-05-07 04:49 |
|---|---|
| Airport | Bozeman Yellowstone International Airport (KBZN) |
Arrival
| Time | 2026-05-07 05:12 |
|---|---|
| Airport | Bozeman Yellowstone International Airport (KBZN) |
| Time | Latitude | Longitude | Altitude | Speed | Heading |
|---|---|---|---|---|---|
| 2026-05-07 04:15 | 45.77962 | -111.16096 | 4466 ft | 0 kts | 215° |
| 2026-05-07 04:32 | 45.77979 | -111.16082 | 4466 ft | 4 kts | 198° |
| 2026-05-07 04:32 | 45.78000 | -111.16079 | 4463 ft | 4 kts | 168° |
| 2026-05-07 04:32 | 45.78024 | -111.16092 | 4463 ft | 4 kts | 155° |
| 2026-05-07 04:32 | 45.78042 | -111.16102 | 4462 ft | 0 kts | 162° |
| 2026-05-07 04:36 | 45.78041 | -111.16102 | 4462 ft | 0 kts | 162° |
| 2026-05-07 04:37 | 45.78040 | -111.16101 | 4462 ft | 0 kts | 157° |
| 2026-05-07 04:37 | 45.78039 | -111.16099 | 4462 ft | 1 kts | 144° |
| 2026-05-07 04:37 | 45.78036 | -111.16096 | 4462 ft | 1 kts | 133° |
| 2026-05-07 04:37 | 45.78029 | -111.16083 | 4462 ft | 3 kts | 130° |
| 2026-05-07 04:38 | 45.77998 | -111.16031 | 4463 ft | 11 kts | 130° |
| 2026-05-07 04:38 | 45.77960 | -111.15938 | 4463 ft | 12 kts | 95° |
| 2026-05-07 04:38 | 45.77921 | -111.15828 | 4464 ft | 13 kts | 128° |
| 2026-05-07 04:38 | 45.77858 | -111.15733 | 4464 ft | 13 kts | 135° |
| 2026-05-07 04:39 | 45.77790 | -111.15637 | 4465 ft | 14 kts | 135° |
| 2026-05-07 04:39 | 45.77719 | -111.15537 | 4465 ft | 15 kts | 135° |
| 2026-05-07 04:39 | 45.77645 | -111.15431 | 4465 ft | 16 kts | 135° |
| 2026-05-07 04:39 | 45.77561 | -111.15317 | 4467 ft | 17 kts | 137° |
| 2026-05-07 04:40 | 45.77470 | -111.15194 | 4466 ft | 19 kts | 136° |
| 2026-05-07 04:40 | 45.77373 | -111.15064 | 4468 ft | 20 kts | 136° |
| 2026-05-07 04:40 | 45.77273 | -111.14927 | 4470 ft | 20 kts | 135° |
| 2026-05-07 04:40 | 45.77173 | -111.14784 | 4470 ft | 21 kts | 135° |
| 2026-05-07 04:41 | 45.77068 | -111.14635 | 4472 ft | 21 kts | 135° |
| 2026-05-07 04:41 | 45.76965 | -111.14487 | 4477 ft | 20 kts | 132° |
| 2026-05-07 04:41 | 45.76947 | -111.14387 | 4480 ft | 3 kts | 74° |
| 2026-05-07 04:41 | 45.76951 | -111.14369 | 4481 ft | 1 kts | 65° |
| 2026-05-07 04:42 | 45.76953 | -111.14365 | 4481 ft | 0 kts | 60° |
| 2026-05-07 04:42 | 45.76955 | -111.14360 | 4481 ft | 1 kts | 60° |
| 2026-05-07 04:42 | 45.76959 | -111.14351 | 4482 ft | 1 kts | 59° |
| 2026-05-07 04:42 | 45.76969 | -111.14337 | 4487 ft | 5 kts | 36° |
| 2026-05-07 04:43 | 45.77010 | -111.14280 | 4483 ft | 10 kts | 43° |
| 2026-05-07 04:43 | 45.77078 | -111.14269 | 4481 ft | 13 kts | 338° |
| 2026-05-07 04:43 | 45.77161 | -111.14364 | 4476 ft | 18 kts | 316° |
| 2026-05-07 04:43 | 45.77369 | -111.14652 | 4470 ft | 80 kts | 316° |
| 2026-05-07 04:44 | 45.77628 | -111.15012 | 4466 ft | 20 kts | 316° |
| 2026-05-07 04:44 | 45.77732 | -111.15157 | 4464 ft | 22 kts | 316° |
| 2026-05-07 04:44 | 45.77844 | -111.15313 | 4462 ft | 23 kts | 315° |
| 2026-05-07 04:44 | 45.77929 | -111.15473 | 4462 ft | 11 kts | 268° |
| 2026-05-07 04:45 | 45.77896 | -111.15576 | 4462 ft | 12 kts | 227° |
| 2026-05-07 04:45 | 45.77833 | -111.15647 | 4464 ft | 11 kts | 197° |
| 2026-05-07 04:45 | 45.77766 | -111.15608 | 4465 ft | 12 kts | 141° |
| 2026-05-07 04:45 | 45.77670 | -111.15474 | 4465 ft | 22 kts | 135° |
| 2026-05-07 04:46 | 45.77561 | -111.15320 | 4466 ft | 22 kts | 135° |
| 2026-05-07 04:46 | 45.77448 | -111.15160 | 4467 ft | 23 kts | 135° |
| 2026-05-07 04:46 | 45.77332 | -111.14997 | 4468 ft | 24 kts | 136° |
| 2026-05-07 04:46 | 45.77213 | -111.14835 | 4470 ft | 23 kts | 136° |
| 2026-05-07 04:47 | 45.77094 | -111.14669 | 4471 ft | 24 kts | 135° |
| 2026-05-07 04:47 | 45.76979 | -111.14503 | 4476 ft | 23 kts | 134° |
| 2026-05-07 04:47 | 45.76958 | -111.14348 | 4482 ft | 16 kts | 59° |
| 2026-05-07 04:47 | 45.77038 | -111.14256 | 4484 ft | 15 kts | 4° |
| 2026-05-07 04:48 | 45.77129 | -111.14320 | 4478 ft | 0 kts | 317° |
| 2026-05-07 04:48 | 45.77133 | -111.14326 | 4477 ft | 3 kts | 317° |
| 2026-05-07 04:48 | 45.77134 | -111.14327 | 4477 ft | 0 kts | 317° |
| 2026-05-07 04:48 | 45.77183 | -111.14392 | 4475 ft | 40 kts | 316° |
| 2026-05-07 04:49 | 45.77590 | -111.14960 | 4467 ft | 120 kts | 316° |
| 2026-05-07 04:49 | 45.78351 | -111.15995 | 4517 ft | 175 kts | 312° |
| 2026-05-07 04:49 | 45.79248 | -111.17266 | 5168 ft | 183 kts | 312° |
| 2026-05-07 04:49 | 45.80121 | -111.18509 | 5900 ft | 177 kts | 315° |
| 2026-05-07 04:50 | 45.81006 | -111.19736 | 6657 ft | 172 kts | 313° |
| 2026-05-07 04:50 | 45.81860 | -111.20891 | 7364 ft | 165 kts | 315° |
| 2026-05-07 04:50 | 45.82688 | -111.22001 | 7980 ft | 164 kts | 312° |
| 2026-05-07 04:50 | 45.83331 | -111.23437 | 8411 ft | 180 kts | 298° |
| 2026-05-07 04:51 | 45.83888 | -111.25113 | 8834 ft | 196 kts | 297° |
| 2026-05-07 04:51 | 45.84519 | -111.26940 | 9249 ft | 212 kts | 298° |
| 2026-05-07 04:51 | 45.85232 | -111.28899 | 9652 ft | 231 kts | 300° |
| 2026-05-07 04:51 | 45.86040 | -111.31028 | 9963 ft | 255 kts | 300° |
| 2026-05-07 04:52 | 45.86309 | -111.31722 | 9987 ft | 260 kts | 301° |
| 2026-05-07 04:53 | 45.86608 | -111.32491 | 9978 ft | 261 kts | 301° |
| 2026-05-07 04:53 | 45.87195 | -111.34005 | 9963 ft | 252 kts | 301° |
| 2026-05-07 04:53 | 45.88278 | -111.36795 | 9959 ft | 231 kts | 301° |
| 2026-05-07 04:53 | 45.89040 | -111.38743 | 9955 ft | 220 kts | 300° |
| 2026-05-07 04:54 | 45.89788 | -111.40662 | 9964 ft | 220 kts | 300° |
| 2026-05-07 04:54 | 45.90534 | -111.42574 | 9971 ft | 220 kts | 300° |
| 2026-05-07 04:54 | 45.91284 | -111.44493 | 9965 ft | 220 kts | 300° |
| 2026-05-07 04:54 | 45.92033 | -111.46406 | 9958 ft | 220 kts | 300° |
| 2026-05-07 04:55 | 45.92530 | -111.47677 | 9975 ft | 220 kts | 300° |
| 2026-05-07 04:55 | 45.93276 | -111.49594 | 9954 ft | 220 kts | 300° |
| 2026-05-07 04:55 | 45.94024 | -111.51514 | 9950 ft | 220 kts | 300° |
| 2026-05-07 04:55 | 45.94772 | -111.53432 | 9971 ft | 220 kts | 300° |
| 2026-05-07 04:56 | 45.95394 | -111.55433 | 9947 ft | 222 kts | 284° |
| 2026-05-07 04:56 | 45.95400 | -111.57676 | 9926 ft | 229 kts | 260° |
| 2026-05-07 04:56 | 45.94703 | -111.59772 | 9936 ft | 240 kts | 236° |
| 2026-05-07 04:56 | 45.93367 | -111.61270 | 9940 ft | 252 kts | 208° |
| 2026-05-07 04:57 | 45.91624 | -111.61759 | 9941 ft | 262 kts | 181° |
| 2026-05-07 04:57 | 45.89856 | -111.61058 | 9934 ft | 269 kts | 149° |
| 2026-05-07 04:57 | 45.88414 | -111.59335 | 9972 ft | 272 kts | 136° |
| 2026-05-07 04:57 | 45.87075 | -111.57400 | 9963 ft | 273 kts | 135° |
| 2026-05-07 04:58 | 45.85733 | -111.55454 | 9961 ft | 274 kts | 136° |
| 2026-05-07 04:58 | 45.84396 | -111.53513 | 9969 ft | 273 kts | 128° |
| 2026-05-07 04:58 | 45.83634 | -111.51089 | 9925 ft | 266 kts | 89° |
| 2026-05-07 04:58 | 45.83915 | -111.48545 | 9963 ft | 256 kts | 57° |
| 2026-05-07 04:59 | 45.84965 | -111.46588 | 9977 ft | 244 kts | 30° |
| 2026-05-07 04:59 | 45.86452 | -111.45560 | 9981 ft | 234 kts | 5° |
| 2026-05-07 04:59 | 45.88040 | -111.45553 | 9975 ft | 226 kts | 341° |
| 2026-05-07 04:59 | 45.89442 | -111.46480 | 9977 ft | 222 kts | 319° |
| 2026-05-07 05:00 | 45.90575 | -111.47976 | 9985 ft | 220 kts | 315° |
| 2026-05-07 05:00 | 45.91675 | -111.49504 | 9966 ft | 219 kts | 315° |
| 2026-05-07 05:00 | 45.92775 | -111.51025 | 9970 ft | 219 kts | 315° |
| 2026-05-07 05:00 | 45.93880 | -111.52543 | 9948 ft | 220 kts | 315° |
| 2026-05-07 05:01 | 45.94986 | -111.54061 | 9978 ft | 219 kts | 315° |
| 2026-05-07 05:01 | 45.95896 | -111.55802 | 9943 ft | 221 kts | 292° |
| 2026-05-07 05:01 | 45.96148 | -111.57991 | 9933 ft | 226 kts | 269° |
| 2026-05-07 05:01 | 45.95711 | -111.60194 | 9942 ft | 235 kts | 245° |
| 2026-05-07 05:02 | 45.94607 | -111.61972 | 9940 ft | 247 kts | 219° |
| 2026-05-07 05:02 | 45.92977 | -111.62877 | 9940 ft | 259 kts | 190° |
| 2026-05-07 05:02 | 45.91176 | -111.62542 | 9936 ft | 268 kts | 158° |
| 2026-05-07 05:02 | 45.89690 | -111.60942 | 9940 ft | 271 kts | 127° |
| 2026-05-07 05:03 | 45.88605 | -111.58756 | 9972 ft | 273 kts | 123° |
| 2026-05-07 05:03 | 45.87542 | -111.56452 | 9946 ft | 273 kts | 123° |
| 2026-05-07 05:03 | 45.86507 | -111.54203 | 9962 ft | 274 kts | 123° |
| 2026-05-07 05:03 | 45.85448 | -111.51930 | 9965 ft | 274 kts | 123° |
| 2026-05-07 05:04 | 45.84380 | -111.49659 | 9969 ft | 274 kts | 123° |
| 2026-05-07 05:04 | 45.83309 | -111.47400 | 9973 ft | 274 kts | 123° |
| 2026-05-07 05:04 | 45.82234 | -111.45144 | 9973 ft | 273 kts | 124° |
| 2026-05-07 05:04 | 45.81160 | -111.42891 | 9981 ft | 273 kts | 124° |
| 2026-05-07 05:05 | 45.80087 | -111.40644 | 9983 ft | 273 kts | 124° |
| 2026-05-07 05:05 | 45.79007 | -111.38390 | 9913 ft | 274 kts | 124° |
| 2026-05-07 05:05 | 45.77929 | -111.36139 | 9650 ft | 271 kts | 124° |
| 2026-05-07 05:05 | 45.76864 | -111.33915 | 9392 ft | 270 kts | 124° |
| 2026-05-07 05:06 | 45.75812 | -111.31715 | 9166 ft | 265 kts | 124° |
| 2026-05-07 05:06 | 45.74768 | -111.29543 | 9115 ft | 264 kts | 124° |
| 2026-05-07 05:06 | 45.73722 | -111.27370 | 9105 ft | 265 kts | 124° |
| 2026-05-07 05:06 | 45.72618 | -111.25252 | 9104 ft | 265 kts | 131° |
| 2026-05-07 05:07 | 45.71328 | -111.23362 | 9125 ft | 266 kts | 138° |
| 2026-05-07 05:07 | 45.69953 | -111.21583 | 8826 ft | 267 kts | 140° |
| 2026-05-07 05:07 | 45.68556 | -111.19820 | 8447 ft | 269 kts | 140° |
| 2026-05-07 05:07 | 45.67150 | -111.18044 | 8043 ft | 271 kts | 140° |
| 2026-05-07 05:08 | 45.65926 | -111.16000 | 7682 ft | 271 kts | 120° |
| 2026-05-07 05:08 | 45.65345 | -111.13501 | 7382 ft | 260 kts | 95° |
| 2026-05-07 05:08 | 45.65452 | -111.11009 | 7097 ft | 245 kts | 72° |
| 2026-05-07 05:08 | 45.66141 | -111.08922 | 6962 ft | 222 kts | 50° |
| 2026-05-07 05:09 | 45.67179 | -111.07426 | 6830 ft | 202 kts | 32° |
| 2026-05-07 05:09 | 45.68384 | -111.06553 | 6558 ft | 188 kts | 14° |
| 2026-05-07 05:09 | 45.69626 | -111.06246 | 6266 ft | 174 kts | 355° |
| 2026-05-07 05:09 | 45.70792 | -111.06467 | 6052 ft | 167 kts | 340° |
| 2026-05-07 05:10 | 45.71845 | -111.07133 | 5873 ft | 164 kts | 324° |
| 2026-05-07 05:10 | 45.72732 | -111.08147 | 5658 ft | 163 kts | 313° |
| 2026-05-07 05:10 | 45.73548 | -111.09287 | 5419 ft | 165 kts | 311° |
| 2026-05-07 05:10 | 45.74357 | -111.10455 | 5243 ft | 164 kts | 312° |
| 2026-05-07 05:11 | 45.75160 | -111.11594 | 5047 ft | 162 kts | 314° |
| 2026-05-07 05:11 | 45.75961 | -111.12685 | 4814 ft | 156 kts | 311° |
| 2026-05-07 05:11 | 45.76728 | -111.13757 | 4604 ft | 156 kts | 311° |
| 2026-05-07 05:11 | 45.77480 | -111.14814 | 4468 ft | 122 kts | 314° |
| 2026-05-07 05:12 | 45.77860 | -111.15335 | 4463 ft | 44 kts | 316° |
| 2026-05-07 05:12 | 45.77914 | -111.15526 | 4461 ft | 16 kts | 241° |
| 2026-05-07 05:12 | 45.77859 | -111.15626 | 4463 ft | 10 kts | 234° |
| 2026-05-07 05:12 | 45.77842 | -111.15690 | 4464 ft | 4 kts | 257° |
| 2026-05-07 05:13 | 45.77835 | -111.15727 | 4465 ft | 4 kts | 250° |
| 2026-05-07 05:13 | 45.77820 | -111.15768 | 4465 ft | 5 kts | 245° |
| 2026-05-07 05:13 | 45.77817 | -111.15817 | 4466 ft | 6 kts | 273° |
| 2026-05-07 05:13 | 45.77835 | -111.15896 | 4468 ft | 10 kts | 295° |
| 2026-05-07 05:14 | 45.77846 | -111.15962 | 4466 ft | 0 kts | 252° |